createdAt,value
2019-02-26T00:01:14.440Z,18.43
2019-02-26T00:04:36.905Z,19.07
2019-02-26T00:08:02.440Z,18.30
2019-02-26T00:11:29.011Z,16.70
2019-02-26T00:14:54.525Z,18.90
2019-02-26T00:18:19.046Z,17.10
2019-02-26T00:21:43.459Z,17.80
2019-02-26T00:25:08.487Z,18.70
2019-02-26T00:28:36.310Z,16.23
2019-02-26T00:31:59.528Z,16.17
2019-02-26T00:35:23.468Z,17.53
2019-02-26T00:38:47.794Z,15.80
2019-02-26T00:42:11.021Z,16.83
2019-02-26T00:45:36.261Z,17.40
2019-02-26T00:49:00.903Z,15.43
2019-02-26T00:52:24.951Z,16.17
2019-02-26T00:55:48.052Z,15.00
2019-02-26T00:59:12.330Z,15.17
2019-02-26T01:02:35.507Z,16.80
2019-02-26T01:05:59.310Z,15.30
2019-02-26T01:09:25.187Z,15.13
2019-02-26T01:12:48.978Z,14.97
2019-02-26T01:16:12.165Z,15.43
2019-02-26T01:19:36.901Z,16.33
2019-02-26T01:23:00.672Z,15.93
2019-02-26T01:26:27.299Z,15.53
2019-02-26T01:29:51.096Z,15.27
2019-02-26T01:33:14.213Z,15.90
2019-02-26T01:36:40.250Z,16.40
2019-02-26T01:40:07.387Z,16.00
2019-02-26T01:43:29.885Z,16.77
2019-02-26T01:46:53.789Z,16.90
2019-02-26T01:50:18.173Z,15.70
2019-02-26T01:53:42.336Z,16.53
2019-02-26T01:57:08.613Z,16.47
2019-02-26T02:00:31.874Z,14.60
2019-02-26T02:03:56.222Z,15.73
2019-02-26T02:07:21.382Z,16.87
2019-02-26T02:10:44.860Z,15.67
2019-02-26T02:14:08.627Z,17.27
2019-02-26T02:17:33.829Z,15.70
2019-02-26T02:20:58.309Z,16.43
2019-02-26T02:24:22.865Z,15.90
2019-02-26T02:27:49.684Z,14.37
2019-02-26T02:31:11.980Z,14.13
2019-02-26T02:34:36.555Z,15.20
2019-02-26T02:38:02.806Z,14.93
2019-02-26T02:41:26.037Z,14.33
2019-02-26T02:44:50.314Z,15.40
2019-02-26T02:48:14.365Z,14.63
2019-02-26T02:51:39.522Z,14.43
2019-02-26T02:55:04.558Z,15.40
2019-02-26T02:58:28.441Z,15.10
2019-02-26T03:01:52.753Z,16.23
2019-02-26T03:05:16.834Z,14.60
2019-02-26T03:08:42.216Z,15.03
2019-02-26T03:12:05.447Z,15.53
2019-02-26T03:15:30.040Z,14.87
2019-02-26T03:18:53.732Z,16.43
2019-02-26T03:22:18.897Z,14.83
2019-02-26T03:25:44.440Z,13.47
2019-02-26T03:29:07.300Z,14.30
2019-02-26T03:32:30.473Z,14.07
2019-02-26T03:35:53.774Z,13.73
2019-02-26T03:39:17.209Z,14.67
2019-02-26T03:42:41.591Z,14.03
2019-02-26T03:46:05.649Z,14.57
2019-02-26T03:49:28.931Z,13.60
2019-02-26T03:52:52.127Z,14.60
2019-02-26T03:56:18.307Z,13.57
2019-02-26T03:59:41.360Z,14.47
2019-02-26T04:03:05.926Z,14.80
2019-02-26T04:06:30.672Z,14.33
2019-02-26T04:09:55.850Z,13.60
2019-02-26T04:13:20.307Z,15.47
2019-02-26T04:16:43.775Z,12.50
2019-02-26T04:20:08.552Z,14.20
2019-02-26T04:23:33.173Z,14.43
2019-02-26T04:27:51.707Z,13.60
2019-02-26T04:31:44.545Z,14.63
2019-02-26T04:35:36.288Z,12.43
2019-02-26T04:40:05.360Z,12.90
2019-02-26T04:44:35.076Z,13.70
2019-02-26T04:48:00.549Z,14.90
2019-02-26T04:51:23.389Z,13.80
2019-02-26T04:54:46.509Z,12.23
2019-02-26T04:58:12.234Z,12.43
2019-02-26T05:01:34.951Z,13.10
2019-02-26T05:04:58.196Z,13.63
2019-02-26T05:08:21.574Z,13.63
2019-02-26T05:11:44.970Z,13.80
2019-02-26T05:15:11.630Z,13.53
2019-02-26T05:18:34.568Z,13.23
2019-02-26T05:21:59.370Z,12.73
2019-02-26T05:25:22.986Z,14.13
2019-02-26T05:28:48.946Z,14.23
2019-02-26T05:32:11.744Z,12.57
2019-02-26T05:35:37.337Z,13.77
2019-02-26T05:39:02.285Z,13.03
2019-02-26T05:42:27.480Z,13.17
2019-02-26T05:45:53.497Z,13.40
2019-02-26T05:49:19.117Z,14.83
2019-02-26T05:52:40.855Z,15.93
2019-02-26T05:56:04.558Z,14.77
2019-02-26T05:59:27.746Z,14.33
2019-02-26T06:02:51.124Z,15.10
2019-02-26T06:06:14.222Z,14.17
2019-02-26T06:09:37.695Z,14.30
2019-02-26T06:13:02.206Z,15.20
2019-02-26T06:16:27.121Z,14.60
2019-02-26T06:19:51.110Z,15.47
2019-02-26T06:23:14.215Z,14.77
2019-02-26T06:26:40.649Z,15.10
2019-02-26T06:30:07.311Z,15.47
2019-02-26T06:33:32.044Z,15.77
2019-02-26T06:37:17.790Z,14.63
2019-02-26T06:40:41.907Z,15.13
2019-02-26T06:44:46.426Z,16.70
2019-02-26T06:48:12.563Z,16.80
2019-02-26T06:51:34.515Z,14.90
2019-02-26T06:55:00.070Z,15.67
2019-02-26T06:58:25.271Z,17.23
2019-02-26T07:01:48.355Z,18.07
2019-02-26T07:05:12.455Z,16.77
2019-02-26T07:08:35.943Z,16.10
2019-02-26T07:11:59.409Z,15.67
2019-02-26T07:15:22.578Z,15.50
2019-02-26T07:18:45.716Z,16.60
2019-02-26T07:22:11.139Z,17.37
2019-02-26T07:25:36.260Z,17.03
2019-02-26T07:28:58.777Z,16.23
2019-02-26T07:32:22.756Z,16.30
2019-02-26T07:35:46.873Z,16.00
2019-02-26T07:39:13.034Z,17.57
2019-02-26T07:42:37.278Z,16.47
2019-02-26T07:46:01.491Z,16.30
2019-02-26T07:49:24.606Z,16.80
2019-02-26T07:52:49.627Z,19.83
2019-02-26T07:56:15.840Z,18.57
2019-02-26T07:59:39.829Z,17.83
2019-02-26T08:03:07.147Z,17.50
2019-02-26T08:06:31.652Z,17.70
2019-02-26T08:09:55.307Z,17.53
2019-02-26T08:13:18.746Z,18.97
2019-02-26T08:16:42.140Z,19.70
2019-02-26T08:20:08.140Z,17.63
2019-02-26T08:23:30.647Z,18.10
2019-02-26T08:26:53.774Z,20.03
2019-02-26T08:30:20.629Z,19.37
2019-02-26T08:33:42.695Z,20.20
2019-02-26T08:37:05.832Z,17.90
2019-02-26T08:40:29.133Z,21.07
2019-02-26T08:43:54.555Z,18.77
2019-02-26T08:47:19.259Z,20.73
2019-02-26T08:50:44.063Z,20.23
2019-02-26T08:54:08.251Z,20.33
2019-02-26T08:57:31.531Z,20.23
2019-02-26T09:00:54.663Z,20.37
2019-02-26T09:04:19.695Z,19.13
2019-02-26T09:07:45.595Z,18.70
2019-02-26T09:11:10.700Z,17.00
2019-02-26T09:14:37.265Z,17.53
2019-02-26T09:17:58.819Z,17.00
2019-02-26T09:21:22.877Z,14.50
2019-02-26T09:24:46.836Z,13.93
2019-02-26T09:28:11.190Z,13.07
2019-02-26T09:31:34.301Z,13.27
2019-02-26T09:34:59.153Z,12.83
2019-02-26T09:38:25.462Z,14.43
2019-02-26T09:41:48.858Z,13.23
2019-02-26T09:45:15.895Z,15.87
2019-02-26T09:48:41.092Z,16.30
2019-02-26T09:52:06.532Z,16.55
2019-02-26T09:55:29.941Z,16.87
2019-02-26T09:58:53.060Z,17.62
2019-02-26T10:02:17.362Z,18.92
2019-02-26T10:05:41.110Z,19.55
2019-02-26T10:09:08.388Z,13.80
2019-02-26T10:12:32.254Z,15.13
2019-02-26T10:15:58.627Z,12.25
2019-02-26T10:19:21.392Z,10.60
2019-02-26T10:22:44.581Z,11.53
2019-02-26T10:26:10.453Z,11.78
2019-02-26T10:29:36.677Z,14.05
2019-02-26T10:33:01.949Z,14.55
2019-02-26T10:36:24.376Z,14.18
2019-02-26T10:39:49.716Z,13.88
2019-02-26T10:43:12.590Z,15.88
2019-02-26T10:46:37.094Z,13.32
2019-02-26T10:50:00.721Z,16.17
2019-02-26T10:53:23.824Z,19.07
2019-02-26T10:56:46.945Z,21.55
2019-02-26T11:00:25.239Z,19.10
2019-02-26T11:03:49.259Z,19.30
2019-02-26T11:07:14.253Z,14.87
2019-02-26T11:10:41.405Z,14.53
2019-02-26T11:14:05.149Z,14.93
2019-02-26T11:17:28.923Z,14.35
2019-02-26T11:20:56.174Z,13.85
2019-02-26T11:24:18.298Z,13.58
2019-02-26T11:27:43.484Z,13.65
2019-02-26T11:31:08.867Z,12.85
2019-02-26T11:34:33.403Z,11.83
2019-02-26T11:37:58.063Z,12.90
2019-02-26T11:41:21.529Z,12.37
2019-02-26T11:44:44.739Z,13.10
2019-02-26T11:48:08.719Z,13.03
2019-02-26T11:51:37.019Z,12.60
2019-02-26T11:54:58.822Z,12.95
2019-02-26T11:58:24.190Z,11.93
2019-02-26T12:01:47.365Z,13.68
2019-02-26T12:05:10.808Z,11.88
2019-02-26T12:08:37.045Z,12.82
2019-02-26T12:12:00.896Z,13.58
2019-02-26T12:15:27.168Z,13.10
2019-02-26T12:18:50.440Z,12.37
2019-02-26T12:22:13.654Z,14.80
2019-02-26T12:25:36.822Z,14.20
2019-02-26T12:29:02.128Z,14.38
2019-02-26T12:32:27.499Z,17.25
2019-02-26T12:35:51.192Z,14.20
2019-02-26T12:39:16.168Z,14.40
2019-02-26T12:42:39.637Z,15.15
2019-02-26T12:46:04.709Z,14.98
2019-02-26T12:49:29.412Z,18.52
2019-02-26T12:52:53.897Z,17.17
2019-02-26T12:56:17.927Z,14.60
2019-02-26T12:59:41.149Z,14.33
2019-02-26T13:03:05.668Z,12.70
2019-02-26T13:06:29.791Z,12.85
2019-02-26T13:09:55.966Z,16.82
2019-02-26T13:13:18.023Z,14.00
2019-02-26T13:16:42.426Z,14.60
2019-02-26T13:20:11.192Z,15.03
2019-02-26T13:23:34.559Z,14.03
2019-02-26T13:26:59.698Z,14.80
2019-02-26T13:30:23.248Z,13.35
2019-02-26T13:33:46.840Z,14.10
2019-02-26T13:37:10.019Z,13.38
2019-02-26T13:40:38.544Z,12.43
2019-02-26T13:43:58.359Z,13.88
2019-02-26T13:47:21.498Z,12.37
2019-02-26T13:50:44.974Z,14.75
2019-02-26T13:54:08.076Z,12.68
2019-02-26T13:57:31.364Z,14.38
2019-02-26T14:00:54.573Z,14.68
2019-02-26T14:04:17.994Z,14.80
2019-02-26T14:07:41.486Z,16.07
2019-02-26T14:11:04.719Z,14.18
2019-02-26T14:14:27.900Z,13.48
2019-02-26T14:17:51.020Z,14.28
2019-02-26T14:21:14.167Z,15.65
2019-02-26T14:24:37.551Z,12.63
2019-02-26T14:28:00.663Z,14.25
2019-02-26T14:31:23.798Z,13.28
2019-02-26T14:34:47.206Z,12.85
2019-02-26T14:38:10.309Z,12.23
2019-02-26T14:41:33.512Z,12.75
2019-02-26T14:44:56.624Z,13.65
2019-02-26T14:48:19.819Z,13.55
2019-02-26T14:51:42.953Z,13.62
2019-02-26T14:55:06.769Z,14.18
2019-02-26T14:58:29.992Z,14.20
2019-02-26T15:01:53.099Z,14.00
2019-02-26T15:05:16.791Z,16.02
2019-02-26T15:08:41.282Z,15.40
2019-02-26T15:12:04.497Z,15.98
2019-02-26T15:15:28.723Z,13.95
2019-02-26T15:18:52.158Z,13.98
2019-02-26T15:22:15.312Z,14.00
2019-02-26T15:25:38.419Z,14.63
2019-02-26T15:29:01.722Z,15.10
2019-02-26T15:32:24.770Z,14.20
2019-02-26T15:35:47.873Z,14.50
2019-02-26T15:39:11.014Z,14.78
2019-02-26T15:42:34.227Z,13.20
2019-02-26T15:45:57.787Z,14.43
2019-02-26T15:49:22.331Z,12.85
2019-02-26T15:52:46.119Z,13.13
2019-02-26T15:56:09.613Z,14.18
2019-02-26T15:59:35.317Z,13.80
2019-02-26T16:02:59.297Z,13.05
2019-02-26T16:06:23.368Z,12.55
2019-02-26T16:09:46.496Z,10.90
2019-02-26T16:13:09.832Z,10.93
2019-02-26T16:16:32.948Z,10.85
2019-02-26T16:19:56.172Z,10.82
2019-02-26T16:23:19.390Z,10.93
2019-02-26T16:26:42.485Z,10.55
2019-02-26T16:30:11.367Z,10.38
2019-02-26T16:33:34.792Z,10.60
2019-02-26T16:36:57.917Z,10.82
2019-02-26T16:40:22.243Z,9.40
2019-02-26T16:43:47.235Z,8.35
2019-02-26T16:47:12.620Z,8.83
2019-02-26T16:50:35.787Z,9.45
2019-02-26T16:53:59.190Z,9.68
2019-02-26T16:57:22.275Z,10.18
2019-02-26T17:00:46.569Z,10.90
2019-02-26T17:04:10.644Z,9.83
2019-02-26T17:07:34.776Z,10.23
2019-02-26T17:10:58.978Z,10.80
2019-02-26T17:14:22.498Z,10.93
2019-02-26T17:17:46.619Z,10.28
2019-02-26T17:21:09.817Z,9.55
2019-02-26T17:24:33.044Z,9.98
2019-02-26T17:27:56.138Z,10.82
2019-02-26T17:31:19.355Z,9.78
2019-02-26T17:34:43.014Z,9.33
2019-02-26T17:38:06.135Z,10.10
2019-02-26T17:41:29.242Z,10.48
2019-02-26T17:44:52.379Z,10.32
2019-02-26T17:48:15.528Z,10.13
2019-02-26T17:51:38.663Z,10.05
2019-02-26T17:55:01.890Z,10.10
2019-02-26T17:58:25.263Z,9.75
2019-02-26T18:01:48.379Z,10.70
2019-02-26T18:05:11.609Z,11.70
2019-02-26T18:08:34.838Z,9.70
2019-02-26T18:11:59.735Z,10.48
2019-02-26T18:15:23.222Z,11.85
2019-02-26T18:18:46.583Z,11.18
2019-02-26T18:22:09.684Z,13.50
2019-02-26T18:25:33.556Z,13.18
2019-02-26T18:28:56.838Z,13.30
2019-02-26T18:32:19.960Z,12.28
2019-02-26T18:35:43.285Z,13.22
2019-02-26T18:39:10.394Z,15.25
2019-02-26T18:42:34.002Z,14.10
2019-02-26T18:46:00.633Z,14.75
2019-02-26T18:49:23.450Z,13.80
2019-02-26T18:52:48.298Z,14.28
2019-02-26T18:56:14.248Z,13.65
2019-02-26T18:59:37.559Z,13.95
2019-02-26T19:03:00.757Z,12.30
2019-02-26T19:06:24.704Z,14.58
2019-02-26T19:09:49.172Z,15.50
2019-02-26T19:13:12.364Z,14.87
2019-02-26T19:16:35.987Z,15.10
2019-02-26T19:19:59.386Z,13.27
2019-02-26T19:23:22.576Z,15.15
2019-02-26T19:26:47.884Z,14.50
2019-02-26T19:30:14.612Z,15.25
2019-02-26T19:33:37.844Z,15.93
2019-02-26T19:37:04.417Z,14.53
2019-02-26T19:40:38.784Z,16.07
2019-02-26T19:44:04.278Z,14.87
2019-02-26T19:47:31.173Z,15.90
2019-02-26T19:50:54.478Z,15.70
2019-02-26T19:54:18.223Z,14.30
2019-02-26T19:57:41.665Z,16.90
2019-02-26T20:01:05.733Z,15.00
2019-02-26T20:04:31.599Z,16.30
2019-02-26T20:07:54.957Z,15.50
2019-02-26T20:11:22.633Z,15.77
2019-02-26T20:14:48.822Z,16.03
2019-02-26T20:18:20.119Z,16.33
2019-02-26T20:21:37.109Z,14.90
2019-02-26T20:25:00.464Z,16.30
2019-02-26T20:28:26.496Z,15.90
2019-02-26T20:31:50.413Z,15.93
2019-02-26T20:35:15.958Z,17.27
2019-02-26T20:38:38.942Z,16.53
2019-02-26T20:42:05.093Z,17.83
2019-02-26T20:45:28.280Z,17.37
2019-02-26T20:48:51.789Z,17.50
2019-02-26T20:52:15.237Z,15.97
2019-02-26T20:55:39.636Z,15.73
2019-02-26T20:59:02.909Z,17.50
2019-02-26T21:02:26.242Z,16.57
2019-02-26T21:05:49.794Z,16.63
2019-02-26T21:09:13.520Z,18.77
2019-02-26T21:12:38.381Z,17.20
2019-02-26T21:16:02.257Z,17.97
2019-02-26T21:19:25.628Z,19.23
2019-02-26T21:22:49.787Z,17.77
2019-02-26T21:26:14.744Z,17.17
2019-02-26T21:29:38.864Z,16.33
2019-02-26T21:33:03.093Z,16.33
2019-02-26T21:36:28.005Z,17.43
2019-02-26T21:39:51.459Z,17.03
2019-02-26T21:43:14.640Z,17.30
2019-02-26T21:46:38.065Z,16.67
2019-02-26T21:50:01.770Z,15.43
2019-02-26T21:53:26.041Z,18.63
2019-02-26T21:56:49.512Z,17.77
2019-02-26T22:00:14.363Z,17.53
2019-02-26T22:03:37.806Z,16.67
2019-02-26T22:07:01.000Z,19.47
2019-02-26T22:10:24.179Z,18.13
2019-02-26T22:13:47.271Z,18.13
2019-02-26T22:17:10.416Z,17.03
2019-02-26T22:20:36.405Z,17.80
2019-02-26T22:23:58.709Z,17.57
2019-02-26T22:27:24.454Z,17.70
2019-02-26T22:30:47.604Z,19.37
2019-02-26T22:34:10.856Z,17.90
2019-02-26T22:37:34.027Z,18.00
2019-02-26T22:40:57.120Z,17.10
2019-02-26T22:44:21.589Z,16.27
2019-02-26T22:47:46.360Z,17.27
2019-02-26T22:51:09.488Z,17.47
2019-02-26T22:54:32.618Z,16.93
2019-02-26T22:57:55.896Z,17.77
2019-02-26T23:01:42.966Z,17.27
2019-02-26T23:05:06.701Z,17.93
2019-02-26T23:08:30.012Z,18.33
2019-02-26T23:11:53.462Z,18.07
2019-02-26T23:15:16.622Z,18.33
2019-02-26T23:18:40.378Z,19.37
2019-02-26T23:22:07.121Z,18.43
2019-02-26T23:25:30.651Z,20.03
2019-02-26T23:28:56.166Z,20.73
2019-02-26T23:32:21.010Z,22.00
2019-02-26T23:35:44.620Z,23.40
2019-02-26T23:39:11.315Z,21.37
2019-02-26T23:42:38.583Z,22.23
2019-02-26T23:46:01.534Z,22.13
2019-02-26T23:49:24.969Z,20.57
2019-02-26T23:52:48.385Z,22.67
2019-02-26T23:56:11.651Z,21.67
2019-02-26T23:59:37.703Z,22.13
